Terminal Aerodrome Forecast
Issued by NWS Spokane, WA

Home | Current Version | Previous Version | Text Only | Print | Product List | Glossary On
Versions: 1 2 3 4 5 6 7 8 9 10 11 12 13 14 15 16 17 18 19 20 21 22 23
000
FTUS46 KOTX 222331
TAFLWS
TAF
KLWS 222331Z 2300/2324 VRB03KT P6SM VCTS SCT100CB BKN150
      TEMPO 2300/2302 -SHRA BKN100
     FM230200 VRB04KT P6SM SCT120 BKN200
     FM230500 15003KT P6SM VCSH BKN120 BKN200
     FM230700 12004KT P6SM -SHRA SCT040 BKN100 OVC150
     FM231300 VRB04KT P6SM VCSH SCT090 BKN150=

USA.gov is the U.S. government's official web portal to all federal, state and local government web resources and services.